sensor_id;sensor_type;location;lat;lon;timestamp;P1;durP1;ratioP1;P2;durP2;ratioP2
58978;SDS011;44763;50.464;30.612;2023-09-08T00:01:02;6.10;;;3.20;;
58978;SDS011;44763;50.464;30.612;2023-09-08T00:03:05;7.90;;;4.10;;
58978;SDS011;44763;50.464;30.612;2023-09-08T00:05:08;6.20;;;4.50;;
58978;SDS011;44763;50.464;30.612;2023-09-08T00:07:09;8.40;;;3.90;;
58978;SDS011;44763;50.464;30.612;2023-09-08T00:09:11;6.20;;;3.70;;
58978;SDS011;44763;50.464;30.612;2023-09-08T00:11:13;7.00;;;3.80;;
58978;SDS011;44763;50.464;30.612;2023-09-08T00:13:15;10.50;;;4.10;;
58978;SDS011;44763;50.464;30.612;2023-09-08T00:15:19;4.40;;;3.70;;
58978;SDS011;44763;50.464;30.612;2023-09-08T00:17:21;9.50;;;4.30;;
58978;SDS011;44763;50.464;30.612;2023-09-08T00:19:25;8.80;;;3.90;;
58978;SDS011;44763;50.464;30.612;2023-09-08T00:21:27;6.50;;;3.90;;
58978;SDS011;44763;50.464;30.612;2023-09-08T00:23:29;6.50;;;4.00;;
58978;SDS011;44763;50.464;30.612;2023-09-08T00:25:31;7.00;;;3.90;;
58978;SDS011;44763;50.464;30.612;2023-09-08T00:27:32;5.40;;;3.90;;
58978;SDS011;44763;50.464;30.612;2023-09-08T00:29:34;6.40;;;4.10;;
58978;SDS011;44763;50.464;30.612;2023-09-08T00:31:36;7.20;;;4.00;;
58978;SDS011;44763;50.464;30.612;2023-09-08T00:33:38;9.90;;;4.60;;
58978;SDS011;44763;50.464;30.612;2023-09-08T00:35:43;4.70;;;3.90;;
58978;SDS011;44763;50.464;30.612;2023-09-08T00:37:46;5.40;;;3.70;;
58978;SDS011;44763;50.464;30.612;2023-09-08T00:39:48;7.90;;;4.60;;
58978;SDS011;44763;50.464;30.612;2023-09-08T00:41:49;6.50;;;3.80;;
58978;SDS011;44763;50.464;30.612;2023-09-08T00:43:52;7.80;;;4.00;;
58978;SDS011;44763;50.464;30.612;2023-09-08T00:45:54;7.50;;;4.40;;
58978;SDS011;44763;50.464;30.612;2023-09-08T00:47:58;10.30;;;5.60;;
58978;SDS011;44763;50.464;30.612;2023-09-08T00:50:00;5.60;;;4.10;;
58978;SDS011;44763;50.464;30.612;2023-09-08T00:52:04;10.60;;;4.90;;
58978;SDS011;44763;50.464;30.612;2023-09-08T00:54:06;8.60;;;3.80;;
58978;SDS011;44763;50.464;30.612;2023-09-08T00:56:09;7.50;;;4.70;;
58978;SDS011;44763;50.464;30.612;2023-09-08T00:58:13;8.50;;;4.90;;
58978;SDS011;44763;50.464;30.612;2023-09-08T01:00:15;8.60;;;4.30;;
58978;SDS011;44763;50.464;30.612;2023-09-08T01:02:17;10.90;;;4.80;;
58978;SDS011;44763;50.464;30.612;2023-09-08T01:04:22;6.80;;;4.60;;
58978;SDS011;44763;50.464;30.612;2023-09-08T01:06:23;8.50;;;4.50;;
58978;SDS011;44763;50.464;30.612;2023-09-08T01:08:26;10.40;;;4.50;;
58978;SDS011;44763;50.464;30.612;2023-09-08T01:10:28;6.80;;;4.40;;
58978;SDS011;44763;50.464;30.612;2023-09-08T01:12:30;5.60;;;4.40;;
58978;SDS011;44763;50.464;30.612;2023-09-08T01:14:32;10.70;;;5.30;;
58978;SDS011;44763;50.464;30.612;2023-09-08T01:16:34;11.90;;;5.00;;
58978;SDS011;44763;50.464;30.612;2023-09-08T01:18:37;6.30;;;4.90;;
58978;SDS011;44763;50.464;30.612;2023-09-08T01:20:48;9.10;;;6.00;;
58978;SDS011;44763;50.464;30.612;2023-09-08T01:23:09;6.10;;;4.90;;
58978;SDS011;44763;50.464;30.612;2023-09-08T01:25:23;6.40;;;4.40;;
58978;SDS011;44763;50.464;30.612;2023-09-08T01:27:26;6.00;;;4.20;;
58978;SDS011;44763;50.464;30.612;2023-09-08T01:29:31;12.20;;;4.60;;
58978;SDS011;44763;50.464;30.612;2023-09-08T01:31:34;6.90;;;4.50;;
58978;SDS011;44763;50.464;30.612;2023-09-08T01:33:36;7.00;;;4.90;;
58978;SDS011;44763;50.464;30.612;2023-09-08T01:35:39;9.00;;;4.60;;
58978;SDS011;44763;50.464;30.612;2023-09-08T01:37:44;8.90;;;4.40;;
58978;SDS011;44763;50.464;30.612;2023-09-08T01:39:47;8.80;;;4.40;;
58978;SDS011;44763;50.464;30.612;2023-09-08T01:41:49;8.60;;;4.80;;
58978;SDS011;44763;50.464;30.612;2023-09-08T01:43:50;9.30;;;4.30;;
58978;SDS011;44763;50.464;30.612;2023-09-08T01:45:52;6.50;;;4.40;;
58978;SDS011;44763;50.464;30.612;2023-09-08T01:47:54;4.50;;;3.60;;
58978;SDS011;44763;50.464;30.612;2023-09-08T01:49:56;5.20;;;3.70;;
58978;SDS011;44763;50.464;30.612;2023-09-08T01:51:59;9.30;;;4.00;;
58978;SDS011;44763;50.464;30.612;2023-09-08T01:54:01;11.30;;;3.90;;
58978;SDS011;44763;50.464;30.612;2023-09-08T01:56:03;7.00;;;4.30;;
58978;SDS011;44763;50.464;30.612;2023-09-08T01:58:08;7.30;;;4.00;;
58978;SDS011;44763;50.464;30.612;2023-09-08T02:00:10;3.80;;;2.80;;
58978;SDS011;44763;50.464;30.612;2023-09-08T02:02:14;6.10;;;4.30;;
58978;SDS011;44763;50.464;30.612;2023-09-08T02:04:16;10.70;;;4.40;;
58978;SDS011;44763;50.464;30.612;2023-09-08T02:06:19;5.60;;;3.80;;
58978;SDS011;44763;50.464;30.612;2023-09-08T02:08:20;6.70;;;4.60;;
58978;SDS011;44763;50.464;30.612;2023-09-08T02:10:23;4.90;;;3.80;;
58978;SDS011;44763;50.464;30.612;2023-09-08T02:12:24;8.20;;;3.70;;
58978;SDS011;44763;50.464;30.612;2023-09-08T02:14:26;4.60;;;3.30;;
58978;SDS011;44763;50.464;30.612;2023-09-08T02:16:29;6.60;;;4.00;;
58978;SDS011;44763;50.464;30.612;2023-09-08T02:18:31;8.40;;;4.10;;
58978;SDS011;44763;50.464;30.612;2023-09-08T02:20:35;9.80;;;4.20;;
58978;SDS011;44763;50.464;30.612;2023-09-08T02:22:39;4.90;;;3.80;;
58978;SDS011;44763;50.464;30.612;2023-09-08T02:24:41;4.20;;;3.50;;
58978;SDS011;44763;50.464;30.612;2023-09-08T02:26:43;9.00;;;4.30;;
58978;SDS011;44763;50.464;30.612;2023-09-08T02:28:47;5.90;;;4.30;;
58978;SDS011;44763;50.464;30.612;2023-09-08T02:30:50;7.90;;;4.10;;
58978;SDS011;44763;50.464;30.612;2023-09-08T02:32:52;7.80;;;3.90;;
58978;SDS011;44763;50.464;30.612;2023-09-08T02:34:54;6.90;;;4.60;;
58978;SDS011;44763;50.464;30.612;2023-09-08T02:36:57;7.50;;;4.40;;
58978;SDS011;44763;50.464;30.612;2023-09-08T02:38:59;10.40;;;3.70;;
58978;SDS011;44763;50.464;30.612;2023-09-08T02:41:02;8.20;;;4.50;;
58978;SDS011;44763;50.464;30.612;2023-09-08T02:43:04;6.40;;;3.70;;
58978;SDS011;44763;50.464;30.612;2023-09-08T02:45:07;5.90;;;4.40;;
58978;SDS011;44763;50.464;30.612;2023-09-08T02:47:10;5.30;;;4.20;;
58978;SDS011;44763;50.464;30.612;2023-09-08T02:49:12;7.00;;;4.40;;
58978;SDS011;44763;50.464;30.612;2023-09-08T02:51:14;6.90;;;3.90;;
58978;SDS011;44763;50.464;30.612;2023-09-08T02:53:15;9.00;;;4.60;;
58978;SDS011;44763;50.464;30.612;2023-09-08T02:55:17;9.70;;;4.60;;
58978;SDS011;44763;50.464;30.612;2023-09-08T02:57:20;8.60;;;4.90;;
58978;SDS011;44763;50.464;30.612;2023-09-08T02:59:23;7.70;;;4.70;;
58978;SDS011;44763;50.464;30.612;2023-09-08T03:01:24;6.80;;;5.20;;
58978;SDS011;44763;50.464;30.612;2023-09-08T03:03:26;8.30;;;4.00;;
58978;SDS011;44763;50.464;30.612;2023-09-08T03:05:28;10.50;;;4.10;;
58978;SDS011;44763;50.464;30.612;2023-09-08T03:07:31;6.60;;;4.70;;
58978;SDS011;44763;50.464;30.612;2023-09-08T03:09:35;7.10;;;4.80;;
58978;SDS011;44763;50.464;30.612;2023-09-08T03:11:39;6.10;;;4.70;;
58978;SDS011;44763;50.464;30.612;2023-09-08T03:13:41;9.80;;;5.70;;
58978;SDS011;44763;50.464;30.612;2023-09-08T03:15:43;14.60;;;6.70;;
58978;SDS011;44763;50.464;30.612;2023-09-08T03:17:45;10.80;;;5.10;;
58978;SDS011;44763;50.464;30.612;2023-09-08T03:19:47;13.90;;;6.20;;
58978;SDS011;44763;50.464;30.612;2023-09-08T03:21:49;9.00;;;4.80;;
58978;SDS011;44763;50.464;30.612;2023-09-08T03:23:51;10.60;;;5.30;;
58978;SDS011;44763;50.464;30.612;2023-09-08T03:25:53;13.90;;;5.60;;
58978;SDS011;44763;50.464;30.612;2023-09-08T03:27:54;9.40;;;5.30;;
58978;SDS011;44763;50.464;30.612;2023-09-08T03:29:59;9.90;;;5.60;;
58978;SDS011;44763;50.464;30.612;2023-09-08T03:32:01;11.40;;;5.10;;
58978;SDS011;44763;50.464;30.612;2023-09-08T03:34:04;12.20;;;4.80;;
58978;SDS011;44763;50.464;30.612;2023-09-08T03:36:05;7.30;;;5.20;;
58978;SDS011;44763;50.464;30.612;2023-09-08T03:38:08;11.20;;;5.10;;
58978;SDS011;44763;50.464;30.612;2023-09-08T03:40:10;8.50;;;4.80;;
58978;SDS011;44763;50.464;30.612;2023-09-08T03:42:13;9.70;;;4.20;;
58978;SDS011;44763;50.464;30.612;2023-09-08T03:44:15;7.80;;;4.90;;
58978;SDS011;44763;50.464;30.612;2023-09-08T03:46:16;9.70;;;5.20;;
58978;SDS011;44763;50.464;30.612;2023-09-08T03:48:20;5.60;;;4.30;;
58978;SDS011;44763;50.464;30.612;2023-09-08T03:50:22;9.20;;;4.80;;
58978;SDS011;44763;50.464;30.612;2023-09-08T03:52:24;11.20;;;4.50;;
58978;SDS011;44763;50.464;30.612;2023-09-08T03:54:26;9.10;;;5.80;;
58978;SDS011;44763;50.464;30.612;2023-09-08T03:56:29;9.80;;;5.20;;
58978;SDS011;44763;50.464;30.612;2023-09-08T03:58:31;10.40;;;5.40;;
58978;SDS011;44763;50.464;30.612;2023-09-08T04:00:34;16.00;;;6.10;;
58978;SDS011;44763;50.464;30.612;2023-09-08T04:02:36;6.50;;;4.90;;
58978;SDS011;44763;50.464;30.612;2023-09-08T04:04:38;7.40;;;5.00;;
58978;SDS011;44763;50.464;30.612;2023-09-08T04:06:42;7.20;;;4.60;;
58978;SDS011;44763;50.464;30.612;2023-09-08T04:08:44;7.60;;;4.80;;
58978;SDS011;44763;50.464;30.612;2023-09-08T04:10:46;11.10;;;5.00;;
58978;SDS011;44763;50.464;30.612;2023-09-08T04:12:48;7.30;;;4.80;;
58978;SDS011;44763;50.464;30.612;2023-09-08T04:14:50;11.50;;;5.30;;
58978;SDS011;44763;50.464;30.612;2023-09-08T04:16:52;9.40;;;4.80;;
58978;SDS011;44763;50.464;30.612;2023-09-08T04:21:23;6.30;;;4.70;;
58978;SDS011;44763;50.464;30.612;2023-09-08T04:23:28;7.40;;;5.10;;
58978;SDS011;44763;50.464;30.612;2023-09-08T04:25:31;8.60;;;4.90;;
58978;SDS011;44763;50.464;30.612;2023-09-08T04:27:35;8.90;;;4.00;;
58978;SDS011;44763;50.464;30.612;2023-09-08T04:29:38;8.90;;;4.30;;
58978;SDS011;44763;50.464;30.612;2023-09-08T04:31:40;10.50;;;5.00;;
58978;SDS011;44763;50.464;30.612;2023-09-08T04:33:42;10.00;;;4.20;;
58978;SDS011;44763;50.464;30.612;2023-09-08T04:35:44;5.40;;;4.00;;
58978;SDS011;44763;50.464;30.612;2023-09-08T04:37:45;7.60;;;4.20;;
58978;SDS011;44763;50.464;30.612;2023-09-08T04:39:47;11.50;;;4.50;;
58978;SDS011;44763;50.464;30.612;2023-09-08T04:41:49;8.30;;;4.00;;
58978;SDS011;44763;50.464;30.612;2023-09-08T04:43:51;10.40;;;4.10;;
58978;SDS011;44763;50.464;30.612;2023-09-08T04:45:53;7.70;;;4.50;;
58978;SDS011;44763;50.464;30.612;2023-09-08T04:47:55;10.00;;;4.50;;
58978;SDS011;44763;50.464;30.612;2023-09-08T04:49:57;7.70;;;3.80;;
58978;SDS011;44763;50.464;30.612;2023-09-08T04:51:59;10.30;;;4.30;;
58978;SDS011;44763;50.464;30.612;2023-09-08T04:54:02;4.30;;;3.50;;
58978;SDS011;44763;50.464;30.612;2023-09-08T04:56:04;6.70;;;3.40;;
58978;SDS011;44763;50.464;30.612;2023-09-08T04:58:06;4.70;;;3.70;;
58978;SDS011;44763;50.464;30.612;2023-09-08T05:00:08;7.10;;;3.70;;
58978;SDS011;44763;50.464;30.612;2023-09-08T05:02:10;6.50;;;3.90;;
58978;SDS011;44763;50.464;30.612;2023-09-08T05:04:12;9.40;;;3.50;;
58978;SDS011;44763;50.464;30.612;2023-09-08T05:06:14;7.20;;;3.60;;
58978;SDS011;44763;50.464;30.612;2023-09-08T05:08:16;8.30;;;3.50;;
58978;SDS011;44763;50.464;30.612;2023-09-08T05:10:18;5.90;;;4.50;;
58978;SDS011;44763;50.464;30.612;2023-09-08T05:12:21;8.60;;;4.90;;
58978;SDS011;44763;50.464;30.612;2023-09-08T05:14:23;5.40;;;3.90;;
58978;SDS011;44763;50.464;30.612;2023-09-08T05:16:26;6.10;;;4.40;;
58978;SDS011;44763;50.464;30.612;2023-09-08T05:18:40;5.30;;;3.90;;
58978;SDS011;44763;50.464;30.612;2023-09-08T05:20:43;8.10;;;4.80;;
58978;SDS011;44763;50.464;30.612;2023-09-08T05:22:44;9.10;;;4.40;;
58978;SDS011;44763;50.464;30.612;2023-09-08T05:24:46;7.90;;;5.10;;
58978;SDS011;44763;50.464;30.612;2023-09-08T05:26:48;9.40;;;6.20;;
58978;SDS011;44763;50.464;30.612;2023-09-08T05:28:50;7.40;;;5.80;;
58978;SDS011;44763;50.464;30.612;2023-09-08T05:30:52;5.50;;;4.90;;
58978;SDS011;44763;50.464;30.612;2023-09-08T05:32:55;8.20;;;4.60;;
58978;SDS011;44763;50.464;30.612;2023-09-08T05:34:59;12.00;;;4.70;;
58978;SDS011;44763;50.464;30.612;2023-09-08T05:37:01;9.10;;;4.90;;
58978;SDS011;44763;50.464;30.612;2023-09-08T05:39:04;6.40;;;4.00;;
58978;SDS011;44763;50.464;30.612;2023-09-08T05:41:07;10.90;;;3.50;;
58978;SDS011;44763;50.464;30.612;2023-09-08T05:43:11;4.70;;;3.10;;
58978;SDS011;44763;50.464;30.612;2023-09-08T05:45:12;7.00;;;3.30;;
58978;SDS011;44763;50.464;30.612;2023-09-08T05:47:14;5.60;;;3.20;;
58978;SDS011;44763;50.464;30.612;2023-09-08T05:49:17;4.50;;;2.40;;
58978;SDS011;44763;50.464;30.612;2023-09-08T05:51:19;4.00;;;2.50;;
58978;SDS011;44763;50.464;30.612;2023-09-08T05:53:22;4.40;;;2.20;;
58978;SDS011;44763;50.464;30.612;2023-09-08T05:55:24;3.70;;;1.80;;
58978;SDS011;44763;50.464;30.612;2023-09-08T05:57:25;7.10;;;3.70;;
58978;SDS011;44763;50.464;30.612;2023-09-08T05:59:28;1.30;;;1.20;;
58978;SDS011;44763;50.464;30.612;2023-09-08T06:01:31;3.40;;;1.40;;
58978;SDS011;44763;50.464;30.612;2023-09-08T06:03:35;3.80;;;1.30;;
58978;SDS011;44763;50.464;30.612;2023-09-08T06:05:37;4.00;;;1.90;;
58978;SDS011;44763;50.464;30.612;2023-09-08T06:07:39;4.70;;;1.50;;
58978;SDS011;44763;50.464;30.612;2023-09-08T06:09:51;1.80;;;1.40;;
58978;SDS011;44763;50.464;30.612;2023-09-08T06:11:55;2.20;;;1.20;;
58978;SDS011;44763;50.464;30.612;2023-09-08T06:13:57;3.70;;;1.80;;
58978;SDS011;44763;50.464;30.612;2023-09-08T06:16:03;2.50;;;1.70;;
58978;SDS011;44763;50.464;30.612;2023-09-08T06:18:05;6.40;;;1.80;;
58978;SDS011;44763;50.464;30.612;2023-09-08T06:20:07;4.30;;;1.40;;
58978;SDS011;44763;50.464;30.612;2023-09-08T06:22:10;2.20;;;1.30;;
58978;SDS011;44763;50.464;30.612;2023-09-08T06:24:12;3.40;;;1.80;;
58978;SDS011;44763;50.464;30.612;2023-09-08T06:26:14;2.00;;;1.10;;
58978;SDS011;44763;50.464;30.612;2023-09-08T06:28:15;1.60;;;1.10;;
58978;SDS011;44763;50.464;30.612;2023-09-08T06:30:17;3.10;;;1.30;;
58978;SDS011;44763;50.464;30.612;2023-09-08T06:32:20;7.40;;;1.50;;
58978;SDS011;44763;50.464;30.612;2023-09-08T06:34:22;5.00;;;1.40;;
58978;SDS011;44763;50.464;30.612;2023-09-08T06:36:25;3.20;;;1.40;;
58978;SDS011;44763;50.464;30.612;2023-09-08T06:38:27;4.50;;;1.60;;
58978;SDS011;44763;50.464;30.612;2023-09-08T06:40:33;2.70;;;1.20;;
58978;SDS011;44763;50.464;30.612;2023-09-08T06:42:36;4.70;;;1.40;;
58978;SDS011;44763;50.464;30.612;2023-09-08T06:44:49;5.20;;;1.70;;
58978;SDS011;44763;50.464;30.612;2023-09-08T06:46:51;4.50;;;1.30;;
58978;SDS011;44763;50.464;30.612;2023-09-08T06:48:53;5.50;;;1.50;;
58978;SDS011;44763;50.464;30.612;2023-09-08T06:50:55;2.50;;;1.30;;
58978;SDS011;44763;50.464;30.612;2023-09-08T06:52:58;1.80;;;1.30;;
58978;SDS011;44763;50.464;30.612;2023-09-08T06:55:02;3.80;;;1.20;;
58978;SDS011;44763;50.464;30.612;2023-09-08T06:57:06;2.20;;;1.50;;
58978;SDS011;44763;50.464;30.612;2023-09-08T06:59:08;1.10;;;0.70;;
58978;SDS011;44763;50.464;30.612;2023-09-08T07:01:10;1.70;;;0.90;;
58978;SDS011;44763;50.464;30.612;2023-09-08T07:03:12;2.20;;;1.00;;
58978;SDS011;44763;50.464;30.612;2023-09-08T07:05:15;3.60;;;1.40;;
58978;SDS011;44763;50.464;30.612;2023-09-08T07:07:18;5.10;;;1.90;;
58978;SDS011;44763;50.464;30.612;2023-09-08T07:09:22;5.60;;;2.40;;
58978;SDS011;44763;50.464;30.612;2023-09-08T07:11:25;2.40;;;1.80;;
58978;SDS011;44763;50.464;30.612;2023-09-08T07:13:28;3.50;;;1.30;;
58978;SDS011;44763;50.464;30.612;2023-09-08T07:15:32;2.50;;;1.40;;
58978;SDS011;44763;50.464;30.612;2023-09-08T07:17:36;2.70;;;0.90;;
58978;SDS011;44763;50.464;30.612;2023-09-08T07:19:38;4.40;;;0.90;;
58978;SDS011;44763;50.464;30.612;2023-09-08T07:21:41;5.60;;;1.00;;
58978;SDS011;44763;50.464;30.612;2023-09-08T07:23:43;3.30;;;0.50;;
58978;SDS011;44763;50.464;30.612;2023-09-08T07:25:47;3.60;;;0.90;;
58978;SDS011;44763;50.464;30.612;2023-09-08T07:27:50;5.00;;;1.10;;
58978;SDS011;44763;50.464;30.612;2023-09-08T07:29:54;4.00;;;0.80;;
58978;SDS011;44763;50.464;30.612;2023-09-08T07:31:56;2.80;;;0.60;;
58978;SDS011;44763;50.464;30.612;2023-09-08T07:33:58;1.10;;;0.40;;
58978;SDS011;44763;50.464;30.612;2023-09-08T07:36:07;2.80;;;0.40;;
58978;SDS011;44763;50.464;30.612;2023-09-08T07:38:10;1.80;;;0.40;;
58978;SDS011;44763;50.464;30.612;2023-09-08T07:40:12;1.30;;;0.40;;
58978;SDS011;44763;50.464;30.612;2023-09-08T07:42:14;1.20;;;0.20;;
58978;SDS011;44763;50.464;30.612;2023-09-08T07:44:16;1.20;;;0.30;;
58978;SDS011;44763;50.464;30.612;2023-09-08T07:46:18;1.70;;;0.30;;
58978;SDS011;44763;50.464;30.612;2023-09-08T07:48:20;2.30;;;0.30;;
58978;SDS011;44763;50.464;30.612;2023-09-08T07:50:23;2.20;;;0.20;;
58978;SDS011;44763;50.464;30.612;2023-09-08T07:52:26;1.10;;;0.40;;
58978;SDS011;44763;50.464;30.612;2023-09-08T07:54:28;0.40;;;0.10;;
58978;SDS011;44763;50.464;30.612;2023-09-08T07:56:30;2.80;;;0.10;;
58978;SDS011;44763;50.464;30.612;2023-09-08T07:58:33;0.80;;;0.10;;
58978;SDS011;44763;50.464;30.612;2023-09-08T08:00:36;1.60;;;0.30;;
58978;SDS011;44763;50.464;30.612;2023-09-08T08:02:41;0.70;;;0.10;;
58978;SDS011;44763;50.464;30.612;2023-09-08T08:04:44;1.30;;;0.30;;
58978;SDS011;44763;50.464;30.612;2023-09-08T08:06:46;3.70;;;0.20;;
58978;SDS011;44763;50.464;30.612;2023-09-08T08:08:49;0.70;;;0.30;;
58978;SDS011;44763;50.464;30.612;2023-09-08T08:10:51;2.30;;;0.10;;
58978;SDS011;44763;50.464;30.612;2023-09-08T08:12:53;0.40;;;0.10;;
58978;SDS011;44763;50.464;30.612;2023-09-08T08:14:54;0.20;;;0.10;;
58978;SDS011;44763;50.464;30.612;2023-09-08T08:16:56;0.20;;;0.10;;
58978;SDS011;44763;50.464;30.612;2023-09-08T08:18:58;1.90;;;0.20;;
58978;SDS011;44763;50.464;30.612;2023-09-08T08:21:00;0.20;;;0.10;;
58978;SDS011;44763;50.464;30.612;2023-09-08T08:23:05;2.20;;;0.10;;
58978;SDS011;44763;50.464;30.612;2023-09-08T08:25:07;3.40;;;0.10;;
58978;SDS011;44763;50.464;30.612;2023-09-08T08:27:12;1.00;;;0.10;;
58978;SDS011;44763;50.464;30.612;2023-09-08T08:29:14;1.40;;;0.10;;
58978;SDS011;44763;50.464;30.612;2023-09-08T08:31:16;0.80;;;0.10;;
58978;SDS011;44763;50.464;30.612;2023-09-08T08:33:18;0.80;;;0.10;;
58978;SDS011;44763;50.464;30.612;2023-09-08T08:35:21;1.70;;;0.10;;
58978;SDS011;44763;50.464;30.612;2023-09-08T08:37:23;0.50;;;0.10;;
58978;SDS011;44763;50.464;30.612;2023-09-08T08:39:25;2.00;;;0.10;;
58978;SDS011;44763;50.464;30.612;2023-09-08T08:41:28;1.50;;;0.40;;
58978;SDS011;44763;50.464;30.612;2023-09-08T08:43:31;2.40;;;0.10;;
58978;SDS011;44763;50.464;30.612;2023-09-08T08:45:33;0.40;;;0.10;;
58978;SDS011;44763;50.464;30.612;2023-09-08T08:47:36;0.50;;;0.10;;
58978;SDS011;44763;50.464;30.612;2023-09-08T08:49:38;0.30;;;0.00;;
58978;SDS011;44763;50.464;30.612;2023-09-08T08:51:45;0.20;;;0.20;;
58978;SDS011;44763;50.464;30.612;2023-09-08T08:53:49;1.60;;;0.10;;
58978;SDS011;44763;50.464;30.612;2023-09-08T08:55:51;1.40;;;0.30;;
58978;SDS011;44763;50.464;30.612;2023-09-08T08:58:00;1.90;;;0.10;;
58978;SDS011;44763;50.464;30.612;2023-09-08T09:00:06;0.90;;;0.10;;
58978;SDS011;44763;50.464;30.612;2023-09-08T09:02:12;0.70;;;0.10;;
58978;SDS011;44763;50.464;30.612;2023-09-08T09:04:16;2.70;;;0.10;;
58978;SDS011;44763;50.464;30.612;2023-09-08T09:06:18;0.20;;;0.10;;
58978;SDS011;44763;50.464;30.612;2023-09-08T09:08:20;4.00;;;0.30;;
58978;SDS011;44763;50.464;30.612;2023-09-08T09:10:25;1.10;;;0.10;;
58978;SDS011;44763;50.464;30.612;2023-09-08T09:12:27;0.80;;;0.20;;
58978;SDS011;44763;50.464;30.612;2023-09-08T09:14:32;2.30;;;0.10;;
58978;SDS011;44763;50.464;30.612;2023-09-08T09:16:38;1.10;;;0.20;;
58978;SDS011;44763;50.464;30.612;2023-09-08T09:18:53;0.40;;;0.20;;
58978;SDS011;44763;50.464;30.612;2023-09-08T09:21:03;3.00;;;0.20;;
58978;SDS011;44763;50.464;30.612;2023-09-08T09:23:05;0.20;;;0.10;;
58978;SDS011;44763;50.464;30.612;2023-09-08T09:25:06;0.40;;;0.10;;
58978;SDS011;44763;50.464;30.612;2023-09-08T09:27:10;1.10;;;0.20;;
58978;SDS011;44763;50.464;30.612;2023-09-08T09:29:13;2.90;;;0.10;;
58978;SDS011;44763;50.464;30.612;2023-09-08T09:31:15;3.40;;;0.30;;
58978;SDS011;44763;50.464;30.612;2023-09-08T09:33:17;0.70;;;0.10;;
58978;SDS011;44763;50.464;30.612;2023-09-08T09:35:19;4.10;;;0.30;;
58978;SDS011;44763;50.464;30.612;2023-09-08T09:37:21;0.50;;;0.10;;
58978;SDS011;44763;50.464;30.612;2023-09-08T09:39:24;3.60;;;0.20;;
58978;SDS011;44763;50.464;30.612;2023-09-08T09:41:29;3.80;;;0.20;;
58978;SDS011;44763;50.464;30.612;2023-09-08T09:43:32;0.70;;;0.10;;
58978;SDS011;44763;50.464;30.612;2023-09-08T09:45:34;2.80;;;0.20;;
58978;SDS011;44763;50.464;30.612;2023-09-08T09:47:37;5.70;;;0.30;;
58978;SDS011;44763;50.464;30.612;2023-09-08T09:49:43;1.90;;;0.20;;
58978;SDS011;44763;50.464;30.612;2023-09-08T09:51:47;2.10;;;0.10;;
58978;SDS011;44763;50.464;30.612;2023-09-08T09:53:52;4.50;;;0.20;;
58978;SDS011;44763;50.464;30.612;2023-09-08T09:55:56;0.30;;;0.10;;
58978;SDS011;44763;50.464;30.612;2023-09-08T09:57:58;1.10;;;0.10;;
58978;SDS011;44763;50.464;30.612;2023-09-08T10:00:02;1.90;;;0.20;;
58978;SDS011;44763;50.464;30.612;2023-09-08T10:02:08;2.40;;;0.10;;
58978;SDS011;44763;50.464;30.612;2023-09-08T10:04:14;3.80;;;0.80;;
58978;SDS011;44763;50.464;30.612;2023-09-08T10:06:17;1.40;;;0.30;;
58978;SDS011;44763;50.464;30.612;2023-09-08T10:08:21;1.40;;;0.20;;
58978;SDS011;44763;50.464;30.612;2023-09-08T10:10:23;0.40;;;0.10;;
58978;SDS011;44763;50.464;30.612;2023-09-08T10:14:35;4.50;;;0.50;;
58978;SDS011;44763;50.464;30.612;2023-09-08T10:16:38;4.50;;;0.40;;
58978;SDS011;44763;50.464;30.612;2023-09-08T10:18:44;1.20;;;0.20;;
58978;SDS011;44763;50.464;30.612;2023-09-08T10:20:47;0.20;;;0.10;;
58978;SDS011;44763;50.464;30.612;2023-09-08T10:25:37;0.50;;;0.10;;
58978;SDS011;44763;50.464;30.612;2023-09-08T10:27:45;3.20;;;0.20;;
58978;SDS011;44763;50.464;30.612;2023-09-08T10:29:47;1.80;;;0.30;;
58978;SDS011;44763;50.464;30.612;2023-09-08T10:31:50;1.40;;;0.30;;
58978;SDS011;44763;50.464;30.612;2023-09-08T10:33:54;0.90;;;0.10;;
58978;SDS011;44763;50.464;30.612;2023-09-08T10:35:58;3.20;;;0.50;;
58978;SDS011;44763;50.464;30.612;2023-09-08T10:40:28;0.70;;;0.10;;
58978;SDS011;44763;50.464;30.612;2023-09-08T10:42:34;2.00;;;0.10;;
58978;SDS011;44763;50.464;30.612;2023-09-08T10:46:49;1.20;;;0.20;;
58978;SDS011;44763;50.464;30.612;2023-09-08T10:48:58;0.70;;;0.30;;
58978;SDS011;44763;50.464;30.612;2023-09-08T10:51:05;2.00;;;0.40;;
58978;SDS011;44763;50.464;30.612;2023-09-08T10:53:07;1.30;;;0.10;;
58978;SDS011;44763;50.464;30.612;2023-09-08T10:55:13;0.60;;;0.10;;
58978;SDS011;44763;50.464;30.612;2023-09-08T10:57:19;1.40;;;0.20;;
58978;SDS011;44763;50.464;30.612;2023-09-08T10:59:28;2.50;;;0.20;;
58978;SDS011;44763;50.464;30.612;2023-09-08T11:01:36;1.30;;;0.40;;
58978;SDS011;44763;50.464;30.612;2023-09-08T11:05:41;1.90;;;0.10;;
58978;SDS011;44763;50.464;30.612;2023-09-08T11:07:44;1.10;;;0.20;;
58978;SDS011;44763;50.464;30.612;2023-09-08T11:09:47;1.10;;;0.10;;
58978;SDS011;44763;50.464;30.612;2023-09-08T11:11:49;0.30;;;0.10;;
58978;SDS011;44763;50.464;30.612;2023-09-08T11:13:52;2.50;;;0.20;;
58978;SDS011;44763;50.464;30.612;2023-09-08T11:15:54;0.70;;;0.20;;
58978;SDS011;44763;50.464;30.612;2023-09-08T11:17:56;1.40;;;0.20;;
58978;SDS011;44763;50.464;30.612;2023-09-08T11:19:58;1.30;;;0.30;;
58978;SDS011;44763;50.464;30.612;2023-09-08T11:22:00;3.20;;;0.20;;
58978;SDS011;44763;50.464;30.612;2023-09-08T11:24:02;0.70;;;0.10;;
58978;SDS011;44763;50.464;30.612;2023-09-08T11:26:07;0.30;;;0.20;;
58978;SDS011;44763;50.464;30.612;2023-09-08T11:28:10;2.30;;;0.30;;
58978;SDS011;44763;50.464;30.612;2023-09-08T11:30:13;1.00;;;0.20;;
58978;SDS011;44763;50.464;30.612;2023-09-08T11:32:15;0.60;;;0.10;;
58978;SDS011;44763;50.464;30.612;2023-09-08T11:34:17;1.30;;;0.30;;
58978;SDS011;44763;50.464;30.612;2023-09-08T11:36:18;0.90;;;0.20;;
58978;SDS011;44763;50.464;30.612;2023-09-08T11:38:24;0.40;;;0.10;;
58978;SDS011;44763;50.464;30.612;2023-09-08T11:40:27;1.50;;;0.20;;
58978;SDS011;44763;50.464;30.612;2023-09-08T11:42:29;0.20;;;0.10;;
58978;SDS011;44763;50.464;30.612;2023-09-08T11:44:31;0.50;;;0.20;;
58978;SDS011;44763;50.464;30.612;2023-09-08T11:46:34;0.30;;;0.10;;
58978;SDS011;44763;50.464;30.612;2023-09-08T11:48:37;0.60;;;0.30;;
58978;SDS011;44763;50.464;30.612;2023-09-08T11:50:40;2.40;;;0.50;;
58978;SDS011;44763;50.464;30.612;2023-09-08T11:52:46;0.40;;;0.10;;
58978;SDS011;44763;50.464;30.612;2023-09-08T11:54:49;3.00;;;0.20;;
58978;SDS011;44763;50.464;30.612;2023-09-08T11:57:08;1.20;;;0.40;;
58978;SDS011;44763;50.464;30.612;2023-09-08T11:59:13;1.10;;;0.20;;
58978;SDS011;44763;50.464;30.612;2023-09-08T12:01:15;0.60;;;0.10;;
58978;SDS011;44763;50.464;30.612;2023-09-08T12:03:18;5.40;;;0.20;;
58978;SDS011;44763;50.464;30.612;2023-09-08T12:07:27;4.40;;;0.30;;
58978;SDS011;44763;50.464;30.612;2023-09-08T12:09:29;0.30;;;0.10;;
58978;SDS011;44763;50.464;30.612;2023-09-08T12:11:32;2.70;;;0.20;;
58978;SDS011;44763;50.464;30.612;2023-09-08T12:13:38;1.20;;;0.10;;
58978;SDS011;44763;50.464;30.612;2023-09-08T12:15:40;1.40;;;0.20;;
58978;SDS011;44763;50.464;30.612;2023-09-08T12:17:49;1.00;;;0.10;;
58978;SDS011;44763;50.464;30.612;2023-09-08T12:19:51;1.10;;;0.10;;
58978;SDS011;44763;50.464;30.612;2023-09-08T12:21:54;0.60;;;0.10;;
58978;SDS011;44763;50.464;30.612;2023-09-08T12:26:00;1.30;;;0.60;;
58978;SDS011;44763;50.464;30.612;2023-09-08T12:28:02;3.00;;;0.20;;